Time;durP1;ratioP1;P1;durP2;ratioP2;P2;SDS_P1;SDS_P2;PMS_P1;PMS_P2;Temp;Humidity;BMP_temperature;BMP_pressure;BME280_temperature;BME280_humidity;BME280_pressure;Samples;Min_cycle;Max_cycle;Signal;HPM_P1;HPM_P2
2024/02/20 00:03:05;;;;;;;13.40;3.53;;;;;;;;;;12500977;23;20098;-73
2024/02/20 00:08:08;;;;;;;10.77;3.28;;;;;;;;;;12499363;23;20086;-73
2024/02/20 00:13:12;;;;;;;9.63;2.80;;;;;;;;;;12499881;23;20023;-73
2024/02/20 00:18:17;;;;;;;13.02;3.58;;;;;;;;;;12480989;23;20027;-73
2024/02/20 00:23:20;;;;;;;12.48;4.28;;;;;;;;;;12507554;23;20027;-72
2024/02/20 00:28:23;;;;;;;12.50;3.60;;;;;;;;;;12504934;23;20697;-73
2024/02/20 00:33:28;;;;;;;17.80;4.13;;;;;;;;;;12484551;23;20499;-73
2024/02/20 00:38:31;;;;;;;16.25;4.35;;;;;;;;;;12500657;23;20431;-73
2024/02/20 00:43:35;;;;;;;15.75;3.58;;;;;;;;;;12482719;23;20070;-73
2024/02/20 00:48:39;;;;;;;15.60;4.18;;;;;;;;;;12480679;23;20079;-73
2024/02/20 00:53:43;;;;;;;17.95;4.75;;;;;;;;;;12498219;23;20551;-73
2024/02/20 00:58:46;;;;;;;14.80;4.07;;;;;;;;;;12481026;23;20081;-73
2024/02/20 01:03:50;;;;;;;18.10;4.32;;;;;;;;;;12498057;23;20027;-73
2024/02/20 01:08:54;;;;;;;7.78;2.55;;;;;;;;;;12481362;23;20030;-73
2024/02/20 01:13:57;;;;;;;17.52;4.22;;;;;;;;;;12495764;23;20066;-73
2024/02/20 01:19:02;;;;;;;14.02;3.80;;;;;;;;;;12496793;23;20037;-73
2024/02/20 01:24:05;;;;;;;15.73;3.85;;;;;;;;;;12481244;23;20547;-73
2024/02/20 01:29:09;;;;;;;11.82;3.15;;;;;;;;;;12495237;23;20260;-73
2024/02/20 01:34:14;;;;;;;18.90;4.38;;;;;;;;;;12495542;23;20630;-73
2024/02/20 01:39:17;;;;;;;12.65;4.03;;;;;;;;;;12494938;23;20412;-73
2024/02/20 01:44:21;;;;;;;12.15;3.35;;;;;;;;;;12495232;23;20110;-73
2024/02/20 01:49:27;;;;;;;11.73;3.15;;;;;;;;;;12502491;23;20102;-73
2024/02/20 01:54:30;;;;;;;15.23;4.10;;;;;;;;;;12494582;23;20028;-73
2024/02/20 01:59:34;;;;;;;12.70;3.78;;;;;;;;;;12492843;23;20074;-72
2024/02/20 02:04:39;;;;;;;11.73;3.67;;;;;;;;;;12481398;23;20106;-73
2024/02/20 02:09:42;;;;;;;12.00;3.47;;;;;;;;;;12491772;23;20369;-73
2024/02/20 02:14:45;;;;;;;10.73;3.72;;;;;;;;;;12492458;23;20102;-73
2024/02/20 02:19:51;;;;;;;11.85;3.63;;;;;;;;;;12492339;23;20476;-73
2024/02/20 02:24:54;;;;;;;11.60;2.80;;;;;;;;;;12494433;23;20027;-73
2024/02/20 02:29:58;;;;;;;13.15;3.22;;;;;;;;;;12480940;23;20566;-73
2024/02/20 02:35:02;;;;;;;13.32;3.60;;;;;;;;;;12482252;23;20110;-73
2024/02/20 02:40:08;;;;;;;14.07;3.78;;;;;;;;;;12481455;23;20486;-73
2024/02/20 02:45:13;;;;;;;14.93;4.05;;;;;;;;;;12482330;23;20396;-73
2024/02/20 02:50:16;;;;;;;15.13;3.72;;;;;;;;;;12492956;23;20051;-72
2024/02/20 02:55:25;;;;;;;15.73;3.72;;;;;;;;;;12482035;23;20028;-73
2024/02/20 03:00:29;;;;;;;16.88;4.00;;;;;;;;;;12478274;23;20035;-73
2024/02/20 03:05:32;;;;;;;11.85;2.70;;;;;;;;;;12492454;23;20367;-73
2024/02/20 03:10:36;;;;;;;17.63;3.90;;;;;;;;;;12492054;23;20110;-73
2024/02/20 03:15:40;;;;;;;6.10;1.95;;;;;;;;;;12490941;23;20087;-73
2024/02/20 03:20:43;;;;;;;9.93;2.78;;;;;;;;;;12482492;23;20515;-73
2024/02/20 03:25:47;;;;;;;11.65;3.38;;;;;;;;;;12491148;23;20027;-73
2024/02/20 03:30:52;;;;;;;12.27;3.22;;;;;;;;;;12490839;23;20106;-72
2024/02/20 03:35:55;;;;;;;15.35;2.95;;;;;;;;;;12489880;23;20049;-73
2024/02/20 03:40:58;;;;;;;8.63;2.67;;;;;;;;;;12482716;23;20030;-73
2024/02/20 03:46:03;;;;;;;6.07;2.08;;;;;;;;;;12481051;23;20098;-73
2024/02/20 03:51:07;;;;;;;13.02;2.65;;;;;;;;;;12504335;23;20023;-73
2024/02/20 03:56:12;;;;;;;10.23;2.50;;;;;;;;;;12488280;23;20126;-73
2024/02/20 04:01:17;;;;;;;7.50;2.23;;;;;;;;;;12493027;23;20734;-73
2024/02/20 04:06:20;;;;;;;11.23;2.53;;;;;;;;;;12482059;23;20264;-73
2024/02/20 04:11:24;;;;;;;11.88;3.17;;;;;;;;;;12485196;23;20019;-73
2024/02/20 04:16:28;;;;;;;8.85;2.22;;;;;;;;;;12487664;23;20027;-73
2024/02/20 04:21:32;;;;;;;11.38;2.75;;;;;;;;;;12477145;23;20094;-73
2024/02/20 04:26:36;;;;;;;9.30;3.13;;;;;;;;;;12477368;23;20031;-73
2024/02/20 04:31:40;;;;;;;10.38;2.83;;;;;;;;;;12476799;23;20253;-73
2024/02/20 04:36:44;;;;;;;10.10;2.85;;;;;;;;;;12483574;23;20075;-73
2024/02/20 04:41:47;;;;;;;10.20;2.70;;;;;;;;;;12480475;23;20030;-73
2024/02/20 04:46:51;;;;;;;14.18;3.72;;;;;;;;;;12483417;23;20231;-73
2024/02/20 04:51:54;;;;;;;9.60;1.92;;;;;;;;;;12483073;23;20019;-73
2024/02/20 04:56:58;;;;;;;8.90;2.50;;;;;;;;;;12478945;23;20055;-73
2024/02/20 05:02:02;;;;;;;12.65;2.80;;;;;;;;;;12481616;23;20091;-73
2024/02/20 05:07:06;;;;;;;15.40;3.08;;;;;;;;;;12481819;23;20038;-73
2024/02/20 05:12:10;;;;;;;8.27;2.83;;;;;;;;;;12477099;23;20023;-73
2024/02/20 05:17:14;;;;;;;14.98;3.55;;;;;;;;;;12481801;23;20526;-73
2024/02/20 05:22:19;;;;;;;6.88;2.42;;;;;;;;;;12481453;23;20102;-73
2024/02/20 05:27:23;;;;;;;12.85;3.70;;;;;;;;;;12477990;23;20086;-73
2024/02/20 05:32:27;;;;;;;9.52;3.10;;;;;;;;;;12481254;23;20102;-73
2024/02/20 05:37:30;;;;;;;9.70;2.30;;;;;;;;;;12480319;23;20035;-73
2024/02/20 05:42:34;;;;;;;12.38;2.95;;;;;;;;;;12480072;23;20023;-73
2024/02/20 05:47:38;;;;;;;11.35;2.55;;;;;;;;;;12480346;23;20027;-73
2024/02/20 05:52:41;;;;;;;5.63;1.77;;;;;;;;;;12479044;23;20035;-73
2024/02/20 05:57:45;;;;;;;6.93;1.63;;;;;;;;;;12481163;23;20042;-73
2024/02/20 06:02:50;;;;;;;5.30;1.38;;;;;;;;;;12483740;23;20093;-73
2024/02/20 06:07:53;;;;;;;3.88;1.63;;;;;;;;;;12482774;23;20494;-73
2024/02/20 06:12:56;;;;;;;4.60;1.50;;;;;;;;;;12480873;23;20019;-72
2024/02/20 06:18:01;;;;;;;5.95;1.60;;;;;;;;;;12502551;23;20023;-73
2024/02/20 06:23:04;;;;;;;4.68;1.77;;;;;;;;;;12501191;23;20107;-73
2024/02/20 06:28:08;;;;;;;4.20;1.45;;;;;;;;;;12478879;23;20495;-73
2024/02/20 06:33:12;;;;;;;6.40;1.75;;;;;;;;;;12500802;23;20428;-73
2024/02/20 06:38:16;;;;;;;3.08;1.60;;;;;;;;;;12500999;23;20091;-73
2024/02/20 06:43:19;;;;;;;7.60;1.65;;;;;;;;;;12500330;23;20033;-73
2024/02/20 06:48:24;;;;;;;5.50;1.42;;;;;;;;;;12482025;23;20019;-73
2024/02/20 06:53:27;;;;;;;3.45;1.27;;;;;;;;;;12499656;23;20075;-73
2024/02/20 06:58:30;;;;;;;5.07;1.50;;;;;;;;;;12499033;23;20412;-73
2024/02/20 07:03:35;;;;;;;6.95;1.60;;;;;;;;;;12498385;23;20027;-73
2024/02/20 07:08:41;;;;;;;5.05;1.70;;;;;;;;;;12481287;23;20038;-73
2024/02/20 07:13:44;;;;;;;8.43;2.08;;;;;;;;;;12481372;23;20030;-73
2024/02/20 07:18:49;;;;;;;6.97;1.98;;;;;;;;;;12481666;23;20023;-73
2024/02/20 07:23:52;;;;;;;8.93;2.95;;;;;;;;;;12482164;23;20043;-73
2024/02/20 07:28:56;;;;;;;6.90;1.77;;;;;;;;;;12480627;23;20357;-73
2024/02/20 07:34:01;;;;;;;9.27;2.00;;;;;;;;;;12482040;23;20095;-73
2024/02/20 07:39:06;;;;;;;4.22;1.50;;;;;;;;;;12497553;23;20050;-73
2024/02/20 07:44:10;;;;;;;4.43;1.50;;;;;;;;;;12510287;23;20031;-73
2024/02/20 07:49:14;;;;;;;5.75;1.50;;;;;;;;;;12497922;23;20111;-73
2024/02/20 07:54:18;;;;;;;4.90;1.67;;;;;;;;;;12496279;23;20031;-73
2024/02/20 07:59:21;;;;;;;7.10;2.15;;;;;;;;;;12495769;23;20098;-73
2024/02/20 08:04:25;;;;;;;9.48;3.10;;;;;;;;;;12495299;23;20058;-73
2024/02/20 08:09:29;;;;;;;15.60;4.00;;;;;;;;;;12493730;23;20066;-73
2024/02/20 08:14:34;;;;;;;12.68;3.20;;;;;;;;;;12493685;23;20034;-73
2024/02/20 08:19:39;;;;;;;17.45;4.60;;;;;;;;;;12493169;23;20375;-73
2024/02/20 08:24:42;;;;;;;10.65;3.10;;;;;;;;;;12481050;23;20023;-73
2024/02/20 08:29:45;;;;;;;11.00;3.40;;;;;;;;;;12491592;23;20023;-73
2024/02/20 08:34:50;;;;;;;15.70;3.47;;;;;;;;;;12492457;23;20059;-73
2024/02/20 08:39:53;;;;;;;11.63;3.10;;;;;;;;;;12491036;23;20019;-73
2024/02/20 08:44:56;;;;;;;10.25;3.13;;;;;;;;;;12480382;23;20090;-73
2024/02/20 08:50:01;;;;;;;11.45;3.53;;;;;;;;;;12491547;23;20098;-73
2024/02/20 08:55:04;;;;;;;11.82;3.72;;;;;;;;;;12491863;23;20095;-73
2024/02/20 09:00:11;;;;;;;11.23;3.15;;;;;;;;;;12491449;23;20124;-73
2024/02/20 09:05:16;;;;;;;12.02;3.60;;;;;;;;;;12491537;23;20035;-73
2024/02/20 09:10:19;;;;;;;11.10;3.13;;;;;;;;;;12489519;23;20034;-73
2024/02/20 09:15:23;;;;;;;9.40;2.75;;;;;;;;;;12477593;23;20038;-73
2024/02/20 09:20:27;;;;;;;8.38;2.58;;;;;;;;;;12490206;23;20041;-72
2024/02/20 09:25:30;;;;;;;11.45;3.58;;;;;;;;;;12488639;23;20098;-72
2024/02/20 09:30:34;;;;;;;15.25;3.92;;;;;;;;;;12479446;23;20055;-72
2024/02/20 09:35:38;;;;;;;9.45;3.20;;;;;;;;;;12489168;23;20047;-73
2024/02/20 09:40:41;;;;;;;9.00;3.50;;;;;;;;;;12488147;23;20548;-73
2024/02/20 09:45:47;;;;;;;9.90;3.10;;;;;;;;;;12478834;23;20027;-73
2024/02/20 09:50:54;;;;;;;10.20;3.10;;;;;;;;;;12487339;23;20110;-73
2024/02/20 09:55:58;;;;;;;8.13;2.83;;;;;;;;;;12486555;23;20031;-72
2024/02/20 10:01:05;;;;;;;8.45;2.60;;;;;;;;;;12486628;23;20053;-73
2024/02/20 10:06:13;;;;;;;15.45;3.40;;;;;;;;;;12480043;23;20504;-73
2024/02/20 10:11:16;;;;;;;11.07;3.30;;;;;;;;;;12485596;23;20059;-72
2024/02/20 10:16:20;;;;;;;13.82;4.38;;;;;;;;;;12485176;23;20027;-73
2024/02/20 10:21:24;;;;;;;12.93;3.55;;;;;;;;;;12485203;23;20033;-73
2024/02/20 10:26:30;;;;;;;11.80;3.38;;;;;;;;;;12476225;23;20066;-73
2024/02/20 10:31:34;;;;;;;9.73;3.40;;;;;;;;;;12483956;23;20389;-73
2024/02/20 10:36:39;;;;;;;11.18;3.63;;;;;;;;;;12476579;23;20027;-73
2024/02/20 10:41:42;;;;;;;5.80;2.60;;;;;;;;;;12476599;23;20102;-73
2024/02/20 10:46:45;;;;;;;11.90;4.22;;;;;;;;;;12479021;23;20582;-72
2024/02/20 10:51:51;;;;;;;13.65;3.78;;;;;;;;;;12486470;23;20702;-72
2024/02/20 10:56:57;;;;;;;14.82;3.97;;;;;;;;;;12485991;23;20448;-73
2024/02/20 11:02:00;;;;;;;9.70;2.83;;;;;;;;;;12485948;23;20027;-72
2024/02/20 11:07:06;;;;;;;15.88;3.67;;;;;;;;;;12485168;23;20054;-72
2024/02/20 11:12:10;;;;;;;15.05;4.30;;;;;;;;;;12480034;23;20023;-73
2024/02/20 11:17:15;;;;;;;12.68;3.90;;;;;;;;;;12493372;23;20054;-73
2024/02/20 11:22:28;;;;;;;9.18;3.15;;;;;;;;;;12490663;23;20019;-72
2024/02/20 11:27:41;;;;;;;11.15;4.18;;;;;;;;;;12485363;23;20027;-72
2024/02/20 11:32:44;;;;;;;11.90;3.50;;;;;;;;;;12483600;23;20181;-72
2024/02/20 11:37:50;;;;;;;15.85;4.55;;;;;;;;;;12482174;23;20062;-73
2024/02/20 11:42:55;;;;;;;12.30;3.30;;;;;;;;;;12504067;23;20030;-72
2024/02/20 11:48:03;;;;;;;12.93;4.18;;;;;;;;;;12482208;23;20035;-72
2024/02/20 11:53:09;;;;;;;22.15;6.60;;;;;;;;;;12499354;23;20019;-72
2024/02/20 11:58:16;;;;;;;18.23;5.70;;;;;;;;;;12498389;23;20352;-72
2024/02/20 12:03:29;;;;;;;14.85;5.22;;;;;;;;;;12481377;23;20041;-72
2024/02/20 12:08:39;;;;;;;19.48;6.55;;;;;;;;;;12495680;23;20104;-72
2024/02/20 12:13:44;;;;;;;16.13;5.78;;;;;;;;;;12494109;23;20077;-72
2024/02/20 12:18:48;;;;;;;13.05;4.93;;;;;;;;;;12502129;23;20614;-72
2024/02/20 12:23:57;;;;;;;12.07;4.22;;;;;;;;;;12495339;23;20039;-72
2024/02/20 12:29:00;;;;;;;16.55;4.72;;;;;;;;;;12476627;23;20043;-72
2024/02/20 12:34:05;;;;;;;9.30;3.67;;;;;;;;;;12495326;23;20047;-72
2024/02/20 12:39:10;;;;;;;16.15;5.05;;;;;;;;;;12493646;23;20355;-72
2024/02/20 12:44:13;;;;;;;12.02;4.28;;;;;;;;;;12492211;23;20118;-72
2024/02/20 12:49:16;;;;;;;10.48;3.70;;;;;;;;;;12480316;23;20110;-73
2024/02/20 12:54:21;;;;;;;12.00;4.43;;;;;;;;;;12493561;23;20035;-73
2024/02/20 12:59:25;;;;;;;10.07;4.10;;;;;;;;;;12479230;23;20122;-73
2024/02/20 13:04:28;;;;;;;10.10;3.28;;;;;;;;;;12492552;23;20061;-73
2024/02/20 13:09:34;;;;;;;16.73;5.20;;;;;;;;;;12492799;23;20031;-72
2024/02/20 13:14:37;;;;;;;16.50;4.65;;;;;;;;;;12478321;23;20119;-72
2024/02/20 13:19:40;;;;;;;11.80;4.35;;;;;;;;;;12477143;23;20058;-72
2024/02/20 13:24:46;;;;;;;13.95;4.05;;;;;;;;;;12491592;23;20494;-72
2024/02/20 13:29:49;;;;;;;14.67;4.10;;;;;;;;;;12478504;23;20375;-73
2024/02/20 13:34:52;;;;;;;8.90;4.07;;;;;;;;;;12478648;23;20351;-73
2024/02/20 13:39:58;;;;;;;23.52;5.57;;;;;;;;;;12477728;23;20404;-73
2024/02/20 13:45:01;;;;;;;12.98;4.75;;;;;;;;;;12478595;23;20102;-72
2024/02/20 13:50:05;;;;;;;10.90;4.55;;;;;;;;;;12489405;23;20043;-73
2024/02/20 13:55:12;;;;;;;18.90;5.03;;;;;;;;;;12476695;23;20069;-73
2024/02/20 14:00:15;;;;;;;;;;;;;;;;;;12488765;23;20172;-72
2024/02/20 14:05:19;;;;;;;14.57;3.58;;;;;;;;;;12479592;23;19918;-72
2024/02/20 14:10:23;;;;;;;11.32;3.90;;;;;;;;;;12487517;23;20050;-72
2024/02/20 14:15:27;;;;;;;9.32;3.60;;;;;;;;;;12487658;23;20051;-72
2024/02/20 14:20:33;;;;;;;9.75;3.40;;;;;;;;;;12478736;23;20420;-72
2024/02/20 14:25:37;;;;;;;8.38;3.10;;;;;;;;;;12490389;23;20062;-73
2024/02/20 14:30:41;;;;;;;8.07;2.75;;;;;;;;;;12490746;23;20333;-72
2024/02/20 14:35:46;;;;;;;14.07;3.88;;;;;;;;;;12482821;23;20027;-72
2024/02/20 14:40:51;;;;;;;17.15;4.40;;;;;;;;;;12503576;23;20031;-73
2024/02/20 14:45:54;;;;;;;8.68;3.95;;;;;;;;;;12503142;23;20030;-73
2024/02/20 14:50:58;;;;;;;15.20;4.35;;;;;;;;;;12488181;23;20031;-73
2024/02/20 14:56:03;;;;;;;10.05;3.47;;;;;;;;;;12488511;23;20134;-72
2024/02/20 15:01:06;;;;;;;11.40;4.40;;;;;;;;;;12485180;23;20098;-73
2024/02/20 15:06:13;;;;;;;10.75;4.22;;;;;;;;;;12491528;23;20169;-72
2024/02/20 15:11:19;;;;;;;12.18;4.30;;;;;;;;;;12488896;23;20385;-72
2024/02/20 15:16:22;;;;;;;;;;;;;;;;;;12488610;23;20082;-72
2024/02/20 15:21:26;;;;;;;16.67;3.90;;;;;;;;;;12485337;23;19981;-72
2024/02/20 15:26:30;;;;;;;8.32;3.33;;;;;;;;;;12486160;23;20127;-72
2024/02/20 15:31:33;;;;;;;16.05;5.22;;;;;;;;;;12478524;23;20033;-72
2024/02/20 15:36:37;;;;;;;11.43;3.97;;;;;;;;;;12484663;23;20035;-72
2024/02/20 15:41:42;;;;;;;14.68;4.28;;;;;;;;;;12478061;23;20102;-72
2024/02/20 15:46:45;;;;;;;9.40;3.40;;;;;;;;;;12478064;23;20484;-72
2024/02/20 15:51:48;;;;;;;14.40;3.83;;;;;;;;;;12482266;23;20416;-72
2024/02/20 15:56:53;;;;;;;11.75;4.57;;;;;;;;;;12480371;23;20411;-73
2024/02/20 16:01:58;;;;;;;11.90;4.32;;;;;;;;;;12485009;23;20027;-72
2024/02/20 16:07:01;;;;;;;17.58;4.95;;;;;;;;;;12484980;23;20507;-72
2024/02/20 16:12:07;;;;;;;4.72;2.63;;;;;;;;;;12481563;23;20343;-72
2024/02/20 16:17:10;;;;;;;8.13;3.17;;;;;;;;;;12482118;23;20060;-74
2024/02/20 16:22:16;;;;;;;8.45;3.00;;;;;;;;;;12484268;23;20417;-74
2024/02/20 16:27:21;;;;;;;7.80;3.30;;;;;;;;;;12484390;23;20027;-72
2024/02/20 16:32:25;;;;;;;10.65;3.05;;;;;;;;;;12480188;23;20033;-72
2024/02/20 16:37:28;;;;;;;7.78;3.55;;;;;;;;;;12482111;23;20122;-72
2024/02/20 16:42:33;;;;;;;8.90;2.72;;;;;;;;;;12481362;23;20079;-73
2024/02/20 16:47:36;;;;;;;5.85;2.55;;;;;;;;;;12481937;23;20050;-72
2024/02/20 16:52:41;;;;;;;5.97;2.40;;;;;;;;;;12480858;23;20027;-72
2024/02/20 16:57:47;;;;;;;5.72;2.47;;;;;;;;;;12482752;23;20062;-72
2024/02/20 17:02:51;;;;;;;6.43;2.00;;;;;;;;;;12482883;23;20106;-72
2024/02/20 17:07:54;;;;;;;4.82;2.60;;;;;;;;;;12481556;23;20015;-73
2024/02/20 17:12:59;;;;;;;6.80;3.60;;;;;;;;;;12479915;23;20079;-72
2024/02/20 17:18:02;;;;;;;7.18;2.30;;;;;;;;;;12500935;23;20097;-72
2024/02/20 17:23:08;;;;;;;3.92;2.28;;;;;;;;;;12500549;23;20023;-72
2024/02/20 17:28:12;;;;;;;3.67;1.80;;;;;;;;;;12480815;23;20526;-72
2024/02/20 17:33:15;;;;;;;4.90;2.42;;;;;;;;;;12500171;23;20023;-72
2024/02/20 17:38:19;;;;;;;6.57;2.80;;;;;;;;;;12499778;23;20023;-72
2024/02/20 17:43:24;;;;;;;9.60;3.17;;;;;;;;;;12499290;23;20400;-72
2024/02/20 17:48:28;;;;;;;5.20;2.60;;;;;;;;;;12499183;23;20060;-72
2024/02/20 17:53:32;;;;;;;4.93;2.55;;;;;;;;;;12483902;23;20027;-73
2024/02/20 17:58:36;;;;;;;4.68;2.22;;;;;;;;;;12502517;23;20028;-72
2024/02/20 18:03:40;;;;;;;5.25;2.72;;;;;;;;;;12502543;23;20023;-72
2024/02/20 18:08:43;;;;;;;6.40;2.60;;;;;;;;;;12498959;23;20106;-72
2024/02/20 18:13:48;;;;;;;5.43;2.28;;;;;;;;;;12500760;23;20486;-73
2024/02/20 18:18:53;;;;;;;4.80;2.15;;;;;;;;;;12499079;23;20657;-72
2024/02/20 18:23:56;;;;;;;6.68;2.20;;;;;;;;;;12484556;23;20027;-73
2024/02/20 18:29:01;;;;;;;5.22;2.38;;;;;;;;;;12482432;23;20432;-72
2024/02/20 18:34:05;;;;;;;5.65;2.63;;;;;;;;;;12514515;23;20523;-72
2024/02/20 18:39:09;;;;;;;6.72;2.88;;;;;;;;;;12505782;23;20058;-73
2024/02/20 18:44:14;;;;;;;7.47;3.78;;;;;;;;;;12486706;23;20356;-72
2024/02/20 18:49:17;;;;;;;6.90;3.85;;;;;;;;;;12501034;23;20031;-72
2024/02/20 18:54:20;;;;;;;9.98;4.50;;;;;;;;;;12498779;23;20059;-72
2024/02/20 18:59:25;;;;;;;10.05;4.15;;;;;;;;;;12498520;23;20034;-72
2024/02/20 19:04:28;;;;;;;8.93;3.95;;;;;;;;;;12499080;23;20464;-72
2024/02/20 19:09:32;;;;;;;9.10;3.90;;;;;;;;;;12483686;23;20070;-72
2024/02/20 19:14:36;;;;;;;7.47;4.05;;;;;;;;;;12497468;23;20771;-73
2024/02/20 19:19:40;;;;;;;7.53;3.58;;;;;;;;;;12485552;23;20102;-72
2024/02/20 19:24:43;;;;;;;11.77;6.85;;;;;;;;;;12497046;23;20023;-72
2024/02/20 19:29:48;;;;;;;13.63;7.47;;;;;;;;;;12496180;23;20106;-73
2024/02/20 19:34:51;;;;;;;13.73;7.55;;;;;;;;;;12485296;23;20518;-72
2024/02/20 19:39:55;;;;;;;11.52;6.70;;;;;;;;;;12484679;23;20031;-72
2024/02/20 19:45:00;;;;;;;7.72;4.75;;;;;;;;;;12495831;23;20087;-72
2024/02/20 19:50:03;;;;;;;6.63;3.50;;;;;;;;;;12484820;23;20051;-72
2024/02/20 19:55:07;;;;;;;7.88;3.20;;;;;;;;;;12495912;23;20030;-73
2024/02/20 20:00:17;;;;;;;6.60;2.60;;;;;;;;;;12484070;23;20636;-72
2024/02/20 20:05:20;;;;;;;10.35;4.20;;;;;;;;;;12494327;23;20082;-72
2024/02/20 20:10:24;;;;;;;8.57;3.85;;;;;;;;;;12484035;23;20367;-73
2024/02/20 20:15:28;;;;;;;5.85;2.90;;;;;;;;;;12481066;23;20563;-72
2024/02/20 20:20:31;;;;;;;6.40;2.65;;;;;;;;;;12493082;23;20648;-72
2024/02/20 20:25:35;;;;;;;5.13;2.53;;;;;;;;;;12482593;23;20114;-73
2024/02/20 20:30:40;;;;;;;7.82;2.83;;;;;;;;;;12481128;23;20027;-72
2024/02/20 20:35:43;;;;;;;7.70;3.15;;;;;;;;;;12484055;23;20031;-72
2024/02/20 20:40:47;;;;;;;5.10;2.50;;;;;;;;;;12482236;23;20452;-74
2024/02/20 20:45:52;;;;;;;7.15;3.10;;;;;;;;;;12482991;23;20075;-73
2024/02/20 20:50:55;;;;;;;6.68;2.85;;;;;;;;;;12487883;23;20055;-73
2024/02/20 20:56:00;;;;;;;7.53;3.05;;;;;;;;;;12486179;23;20027;-73
2024/02/20 21:01:05;;;;;;;8.95;3.22;;;;;;;;;;12486871;23;20031;-74
2024/02/20 21:06:08;;;;;;;8.68;3.25;;;;;;;;;;12487597;23;20686;-74
2024/02/20 21:11:11;;;;;;;10.70;4.65;;;;;;;;;;12479273;23;20034;-73
2024/02/20 21:16:17;;;;;;;11.07;4.10;;;;;;;;;;12480293;23;20356;-74
2024/02/20 21:21:21;;;;;;;17.67;5.23;;;;;;;;;;12486431;23;20056;-74
2024/02/20 21:26:24;;;;;;;11.38;4.15;;;;;;;;;;12486844;23;20047;-74
2024/02/20 21:31:29;;;;;;;10.63;4.40;;;;;;;;;;12486196;23;20114;-73
2024/02/20 21:36:33;;;;;;;12.85;5.35;;;;;;;;;;12485982;23;20464;-73
2024/02/20 21:41:40;;;;;;;11.27;4.35;;;;;;;;;;12485668;23;20039;-73
2024/02/20 21:46:44;;;;;;;11.98;4.75;;;;;;;;;;12484627;23;20037;-73
2024/02/20 21:51:50;;;;;;;6.72;3.63;;;;;;;;;;12484278;23;20047;-73
2024/02/20 21:56:53;;;;;;;9.77;4.38;;;;;;;;;;12480492;23;20027;-73
2024/02/20 22:01:58;;;;;;;6.95;3.67;;;;;;;;;;12482468;23;20400;-73
2024/02/20 22:07:01;;;;;;;7.63;3.58;;;;;;;;;;12487268;23;20051;-73
2024/02/20 22:12:05;;;;;;;5.60;2.70;;;;;;;;;;12490565;23;20028;-73
2024/02/20 22:17:09;;;;;;;5.60;2.47;;;;;;;;;;12483932;23;20047;-73
2024/02/20 22:22:13;;;;;;;9.52;4.35;;;;;;;;;;12479470;23;20111;-73
2024/02/20 22:27:16;;;;;;;7.68;2.83;;;;;;;;;;12480688;23;20081;-73
2024/02/20 22:32:21;;;;;;;5.00;2.95;;;;;;;;;;12482122;23;20404;-73
2024/02/20 22:37:24;;;;;;;8.45;3.22;;;;;;;;;;12481558;23;20519;-73
2024/02/20 22:42:27;;;;;;;10.38;4.55;;;;;;;;;;12485720;23;20106;-73
2024/02/20 22:47:33;;;;;;;12.80;5.95;;;;;;;;;;12484627;23;20034;-73
2024/02/20 22:52:36;;;;;;;12.38;5.65;;;;;;;;;;12484946;23;20106;-73
2024/02/20 22:57:39;;;;;;;9.18;4.40;;;;;;;;;;12482960;23;20102;-73
2024/02/20 23:02:44;;;;;;;10.55;4.50;;;;;;;;;;12480691;23;20537;-73
2024/02/20 23:07:47;;;;;;;11.75;5.25;;;;;;;;;;12482500;23;20107;-73
2024/02/20 23:12:51;;;;;;;8.50;4.25;;;;;;;;;;12481533;23;20795;-73
2024/02/20 23:17:55;;;;;;;6.53;3.40;;;;;;;;;;12482744;23;20049;-73
2024/02/20 23:22:59;;;;;;;6.95;3.92;;;;;;;;;;12501184;23;20031;-73
2024/02/20 23:28:02;;;;;;;5.05;3.03;;;;;;;;;;12482788;23;20023;-73
2024/02/20 23:33:07;;;;;;;6.72;3.28;;;;;;;;;;12481191;23;20054;-73
2024/02/20 23:38:10;;;;;;;4.82;2.60;;;;;;;;;;12500175;23;20108;-73
2024/02/20 23:43:13;;;;;;;4.20;2.63;;;;;;;;;;12500014;23;20427;-73
2024/02/20 23:48:18;;;;;;;6.68;2.40;;;;;;;;;;12500537;23;20020;-73
2024/02/20 23:53:21;;;;;;;3.63;2.17;;;;;;;;;;12499727;23;20138;-73
2024/02/20 23:58:25;;;;;;;3.67;2.13;;;;;;;;;;12499386;23;20107;-73
